sensor_id;sensor_type;location;lat;lon;timestamp;P1;durP1;ratioP1;P2;durP2;ratioP2
74788;SDS011;63313;48.258;12.518;2023-02-28T00:01:52;9.16;;;3.7800000000000002;;
74788;SDS011;63313;48.258;12.518;2023-02-28T00:07:19;6.3;;;3.4899999999999998;;
74788;SDS011;63313;48.258;12.518;2023-02-28T00:12:46;6.299999999999999;;;3.25;;
74788;SDS011;63313;48.258;12.518;2023-02-28T00:18:13;8.12;;;3.7099999999999995;;
74788;SDS011;63313;48.258;12.518;2023-02-28T00:23:40;6.469999999999999;;;3.8299999999999996;;
74788;SDS011;63313;48.258;12.518;2023-02-28T00:29:07;5.96;;;3.6100000000000008;;
74788;SDS011;63313;48.258;12.518;2023-02-28T00:34:34;6.37;;;3.3699999999999997;;
74788;SDS011;63313;48.258;12.518;2023-02-28T00:40:02;5.39;;;3.31;;
74788;SDS011;63313;48.258;12.518;2023-02-28T00:45:29;7.840000000000001;;;3.75;;
74788;SDS011;63313;48.258;12.518;2023-02-28T00:50:56;8.58;;;4.12;;
74788;SDS011;63313;48.258;12.518;2023-02-28T00:56:23;6.4799999999999995;;;3.6499999999999995;;
74788;SDS011;63313;48.258;12.518;2023-02-28T01:01:50;5.88;;;4.08;;
74788;SDS011;63313;48.258;12.518;2023-02-28T01:07:17;6.68;;;3.97;;
74788;SDS011;63313;48.258;12.518;2023-02-28T01:12:44;9.1;;;4.14;;
74788;SDS011;63313;48.258;12.518;2023-02-28T01:18:11;8.01;;;4.3;;
74788;SDS011;63313;48.258;12.518;2023-02-28T01:23:38;9.15;;;4.7299999999999995;;
74788;SDS011;63313;48.258;12.518;2023-02-28T01:29:06;10.04;;;4.55;;
74788;SDS011;63313;48.258;12.518;2023-02-28T01:34:33;8.48;;;4.71;;
74788;SDS011;63313;48.258;12.518;2023-02-28T01:40:00;8.42;;;4.959999999999999;;
74788;SDS011;63313;48.258;12.518;2023-02-28T01:45:27;12.149999999999999;;;5.529999999999999;;
74788;SDS011;63313;48.258;12.518;2023-02-28T01:50:55;9.55;;;5.619999999999999;;
74788;SDS011;63313;48.258;12.518;2023-02-28T01:56:25;11.690000000000001;;;5.699999999999999;;
74788;SDS011;63313;48.258;12.518;2023-02-28T02:01:53;11.72;;;5.410000000000001;;
74788;SDS011;63313;48.258;12.518;2023-02-28T02:07:21;10.41;;;5.470000000000001;;
74788;SDS011;63313;48.258;12.518;2023-02-28T02:12:54;15.529999999999998;;;6.609999999999999;;
74788;SDS011;63313;48.258;12.518;2023-02-28T02:18:25;16.32;;;6.2700000000000005;;
74788;SDS011;63313;48.258;12.518;2023-02-28T02:24:01;9.389999999999999;;;5.45;;
74788;SDS011;63313;48.258;12.518;2023-02-28T02:29:40;11.25;;;5.9799999999999995;;
74788;SDS011;63313;48.258;12.518;2023-02-28T02:35:11;16.14;;;6.27;;
74788;SDS011;63313;48.258;12.518;2023-02-28T02:40:41;15.569999999999999;;;6.75;;
74788;SDS011;63313;48.258;12.518;2023-02-28T02:46:10;11.8;;;5.93;;
74788;SDS011;63313;48.258;12.518;2023-02-28T02:51:39;9.44;;;5.83;;
74788;SDS011;63313;48.258;12.518;2023-02-28T02:57:08;13.809999999999999;;;6.85;;
74788;SDS011;63313;48.258;12.518;2023-02-28T03:02:38;14.23;;;6.4799999999999995;;
74788;SDS011;63313;48.258;12.518;2023-02-28T03:08:06;13.59;;;6.67;;
74788;SDS011;63313;48.258;12.518;2023-02-28T03:13:37;16.830000000000002;;;7.489999999999999;;
74788;SDS011;63313;48.258;12.518;2023-02-28T03:19:14;15.16;;;7.589999999999999;;
74788;SDS011;63313;48.258;12.518;2023-02-28T03:24:45;15.569999999999999;;;7.4;;
74788;SDS011;63313;48.258;12.518;2023-02-28T03:30:17;17.76;;;8.360000000000001;;
74788;SDS011;63313;48.258;12.518;2023-02-28T03:35:49;17.93;;;8.070000000000002;;
74788;SDS011;63313;48.258;12.518;2023-02-28T03:41:19;21.160000000000004;;;8.85;;
74788;SDS011;63313;48.258;12.518;2023-02-28T03:46:48;18.080000000000002;;;8.74;;
74788;SDS011;63313;48.258;12.518;2023-02-28T03:52:19;15.66;;;8.24;;
74788;SDS011;63313;48.258;12.518;2023-02-28T03:57:52;14.179999999999998;;;8.539999999999997;;
74788;SDS011;63313;48.258;12.518;2023-02-28T04:03:21;18.94;;;8.77;;
74788;SDS011;63313;48.258;12.518;2023-02-28T04:08:48;19.259999999999998;;;10.139999999999999;;
74788;SDS011;63313;48.258;12.518;2023-02-28T04:14:15;20.11;;;9.43;;
74788;SDS011;63313;48.258;12.518;2023-02-28T04:19:42;21.83;;;9.010000000000002;;
74788;SDS011;63313;48.258;12.518;2023-02-28T04:25:09;17.92;;;9.23;;
74788;SDS011;63313;48.258;12.518;2023-02-28T04:30:37;15.3;;;8.64;;
74788;SDS011;63313;48.258;12.518;2023-02-28T04:36:05;16.57;;;8.810000000000002;;
74788;SDS011;63313;48.258;12.518;2023-02-28T04:41:32;20.25;;;10.02;;
74788;SDS011;63313;48.258;12.518;2023-02-28T04:46:59;16.88;;;9.029999999999998;;
74788;SDS011;63313;48.258;12.518;2023-02-28T04:52:27;18.77;;;9.569999999999999;;
74788;SDS011;63313;48.258;12.518;2023-02-28T04:57:54;16.550000000000004;;;8.72;;
74788;SDS011;63313;48.258;12.518;2023-02-28T05:03:21;20.46;;;9.930000000000001;;
74788;SDS011;63313;48.258;12.518;2023-02-28T05:08:49;18.090000000000003;;;8.66;;
74788;SDS011;63313;48.258;12.518;2023-02-28T05:14:16;24.860000000000003;;;10.709999999999999;;
74788;SDS011;63313;48.258;12.518;2023-02-28T05:19:43;21.609999999999996;;;10.349999999999998;;
74788;SDS011;63313;48.258;12.518;2023-02-28T05:25:10;38.7;;;11.47;;
74788;SDS011;63313;48.258;12.518;2023-02-28T05:30:39;30.3;;;10.989999999999998;;
74788;SDS011;63313;48.258;12.518;2023-02-28T05:36:06;27.000000000000007;;;10.84;;
74788;SDS011;63313;48.258;12.518;2023-02-28T05:41:34;28.160000000000004;;;10.379999999999999;;
74788;SDS011;63313;48.258;12.518;2023-02-28T05:47:01;23.240000000000002;;;9.75;;
74788;SDS011;63313;48.258;12.518;2023-02-28T05:52:28;25.43;;;9.97;;
74788;SDS011;63313;48.258;12.518;2023-02-28T05:57:55;19.890000000000004;;;9.23;;
74788;SDS011;63313;48.258;12.518;2023-02-28T06:03:22;18.640000000000004;;;9.17;;
74788;SDS011;63313;48.258;12.518;2023-02-28T06:08:49;24.619999999999997;;;10.05;;
74788;SDS011;63313;48.258;12.518;2023-02-28T06:14:17;18.92;;;9.540000000000001;;
74788;SDS011;63313;48.258;12.518;2023-02-28T06:19:44;18.77;;;9.139999999999999;;
74788;SDS011;63313;48.258;12.518;2023-02-28T06:25:11;20.800000000000004;;;9.84;;
74788;SDS011;63313;48.258;12.518;2023-02-28T06:30:39;17.610000000000003;;;8.63;;
74788;SDS011;63313;48.258;12.518;2023-02-28T06:36:07;18.889999999999997;;;10.49;;
74788;SDS011;63313;48.258;12.518;2023-02-28T06:41:34;17.91;;;8.91;;
74788;SDS011;63313;48.258;12.518;2023-02-28T06:47:01;17.119999999999997;;;9.27;;
74788;SDS011;63313;48.258;12.518;2023-02-28T06:52:29;18.3;;;8.309999999999999;;
74788;SDS011;63313;48.258;12.518;2023-02-28T06:57:56;16.4;;;8.95;;
74788;SDS011;63313;48.258;12.518;2023-02-28T07:03:23;22.169999999999998;;;8.88;;
74788;SDS011;63313;48.258;12.518;2023-02-28T07:08:51;16.45;;;8.33;;
74788;SDS011;63313;48.258;12.518;2023-02-28T07:14:18;16.5;;;8.330000000000002;;
74788;SDS011;63313;48.258;12.518;2023-02-28T07:19:45;19.160000000000004;;;8.86;;
74788;SDS011;63313;48.258;12.518;2023-02-28T07:25:13;16.25;;;8.739999999999998;;
74788;SDS011;63313;48.258;12.518;2023-02-28T07:30:40;21.729999999999997;;;8.129999999999999;;
74788;SDS011;63313;48.258;12.518;2023-02-28T07:36:08;14.15;;;8.04;;
74788;SDS011;63313;48.258;12.518;2023-02-28T07:41:36;15.710000000000003;;;8.66;;
74788;SDS011;63313;48.258;12.518;2023-02-28T07:47:03;15.02;;;7.8;;
74788;SDS011;63313;48.258;12.518;2023-02-28T07:52:30;13.7;;;7.459999999999999;;
74788;SDS011;63313;48.258;12.518;2023-02-28T07:57:57;15.1;;;7.889999999999999;;
74788;SDS011;63313;48.258;12.518;2023-02-28T08:03:25;16.529999999999998;;;8.010000000000002;;
74788;SDS011;63313;48.258;12.518;2023-02-28T08:08:52;15.9;;;7.4799999999999995;;
74788;SDS011;63313;48.258;12.518;2023-02-28T08:14:19;15.739999999999998;;;8.489999999999998;;
74788;SDS011;63313;48.258;12.518;2023-02-28T08:19:47;14.580000000000002;;;7.85;;
74788;SDS011;63313;48.258;12.518;2023-02-28T08:25:14;13.62;;;7.139999999999999;;
74788;SDS011;63313;48.258;12.518;2023-02-28T08:30:41;16.75;;;7.840000000000001;;
74788;SDS011;63313;48.258;12.518;2023-02-28T08:36:08;15.8;;;7.8;;
74788;SDS011;63313;48.258;12.518;2023-02-28T08:41:35;11.879999999999999;;;7.409999999999999;;
74788;SDS011;63313;48.258;12.518;2023-02-28T08:47:02;17.14;;;8.3;;
74788;SDS011;63313;48.258;12.518;2023-02-28T08:52:30;13.16;;;7.7299999999999995;;
74788;SDS011;63313;48.258;12.518;2023-02-28T08:57:57;18.639999999999997;;;9.349999999999998;;
74788;SDS011;63313;48.258;12.518;2023-02-28T09:03:24;14.309999999999999;;;8.41;;
74788;SDS011;63313;48.258;12.518;2023-02-28T09:08:51;19.700000000000003;;;7.789999999999999;;
74788;SDS011;63313;48.258;12.518;2023-02-28T09:14:18;14.979999999999999;;;8.15;;
74788;SDS011;63313;48.258;12.518;2023-02-28T09:19:47;14.919999999999998;;;7.889999999999999;;
74788;SDS011;63313;48.258;12.518;2023-02-28T09:25:14;10.85;;;7.369999999999999;;
74788;SDS011;63313;48.258;12.518;2023-02-28T09:30:41;14.959999999999999;;;7.899999999999999;;
74788;SDS011;63313;48.258;12.518;2023-02-28T09:36:09;16.44;;;7.650000000000001;;
74788;SDS011;63313;48.258;12.518;2023-02-28T09:41:37;12.4;;;6.959999999999999;;
74788;SDS011;63313;48.258;12.518;2023-02-28T09:47:07;15.540000000000001;;;9.48;;
74788;SDS011;63313;48.258;12.518;2023-02-28T09:52:34;11.73;;;6.93;;
74788;SDS011;63313;48.258;12.518;2023-02-28T09:58:03;16.21;;;7.4799999999999995;;
74788;SDS011;63313;48.258;12.518;2023-02-28T10:03:32;13.09;;;7.2700000000000005;;
74788;SDS011;63313;48.258;12.518;2023-02-28T10:09:01;13.13;;;7.7299999999999995;;
74788;SDS011;63313;48.258;12.518;2023-02-28T10:14:30;15.170000000000002;;;7.029999999999999;;
74788;SDS011;63313;48.258;12.518;2023-02-28T10:19:59;12.419999999999998;;;7.2299999999999995;;
74788;SDS011;63313;48.258;12.518;2023-02-28T10:25:28;11.93;;;6.55;;
74788;SDS011;63313;48.258;12.518;2023-02-28T10:30:56;12.1;;;7.56;;
74788;SDS011;63313;48.258;12.518;2023-02-28T10:36:23;11.37;;;7.209999999999999;;
74788;SDS011;63313;48.258;12.518;2023-02-28T10:41:50;14.940000000000001;;;7.389999999999999;;
74788;SDS011;63313;48.258;12.518;2023-02-28T10:47:17;12.6;;;8.0;;
74788;SDS011;63313;48.258;12.518;2023-02-28T10:52:46;11.47;;;7.18;;
74788;SDS011;63313;48.258;12.518;2023-02-28T10:58:21;14.440000000000001;;;7.9;;
74788;SDS011;63313;48.258;12.518;2023-02-28T11:03:48;12.999999999999996;;;7.790000000000001;;
74788;SDS011;63313;48.258;12.518;2023-02-28T11:09:18;13.02;;;7.9;;
74788;SDS011;63313;48.258;12.518;2023-02-28T11:14:47;12.360000000000001;;;6.85;;
74788;SDS011;63313;48.258;12.518;2023-02-28T11:20:18;15.060000000000002;;;7.790000000000001;;
74788;SDS011;63313;48.258;12.518;2023-02-28T11:25:48;12.389999999999999;;;7.719999999999999;;
74788;SDS011;63313;48.258;12.518;2023-02-28T11:31:17;11.59;;;7.260000000000001;;
74788;SDS011;63313;48.258;12.518;2023-02-28T11:36:44;13.2;;;7.38;;
74788;SDS011;63313;48.258;12.518;2023-02-28T11:42:17;11.16;;;7.18;;
74788;SDS011;63313;48.258;12.518;2023-02-28T11:47:47;11.780000000000001;;;6.56;;
74788;SDS011;63313;48.258;12.518;2023-02-28T11:53:17;12.65;;;7.58;;
74788;SDS011;63313;48.258;12.518;2023-02-28T11:58:48;12.59;;;7.630000000000001;;
74788;SDS011;63313;48.258;12.518;2023-02-28T12:04:23;15.23;;;7.389999999999999;;
74788;SDS011;63313;48.258;12.518;2023-02-28T12:09:53;13.320000000000002;;;7.589999999999999;;
74788;SDS011;63313;48.258;12.518;2023-02-28T12:15:31;11.09;;;6.87;;
74788;SDS011;63313;48.258;12.518;2023-02-28T12:21:01;12.809999999999999;;;7.529999999999999;;
74788;SDS011;63313;48.258;12.518;2023-02-28T12:26:34;15.91;;;8.040000000000001;;
74788;SDS011;63313;48.258;12.518;2023-02-28T12:32:04;14.870000000000001;;;7.58;;
74788;SDS011;63313;48.258;12.518;2023-02-28T12:37:33;13.270000000000001;;;8.26;;
74788;SDS011;63313;48.258;12.518;2023-02-28T12:43:04;11.88;;;7.7299999999999995;;
74788;SDS011;63313;48.258;12.518;2023-02-28T12:48:33;14.819999999999999;;;7.85;;
74788;SDS011;63313;48.258;12.518;2023-02-28T12:54:04;11.52;;;7.480000000000001;;
74788;SDS011;63313;48.258;12.518;2023-02-28T12:59:36;10.790000000000003;;;7.5;;
74788;SDS011;63313;48.258;12.518;2023-02-28T13:05:24;13.920000000000002;;;7.62;;
74788;SDS011;63313;48.258;12.518;2023-02-28T13:10:54;11.629999999999999;;;7.5;;
74788;SDS011;63313;48.258;12.518;2023-02-28T13:16:21;10.81;;;7.12;;
74788;SDS011;63313;48.258;12.518;2023-02-28T13:21:48;13.979999999999999;;;7.9;;
74788;SDS011;63313;48.258;12.518;2023-02-28T13:27:20;14.11;;;8.190000000000001;;
74788;SDS011;63313;48.258;12.518;2023-02-28T13:32:51;9.540000000000001;;;7.159999999999999;;
74788;SDS011;63313;48.258;12.518;2023-02-28T13:38:44;10.680000000000001;;;7.770000000000001;;
74788;SDS011;63313;48.258;12.518;2023-02-28T13:44:12;11.23;;;7.32;;
74788;SDS011;63313;48.258;12.518;2023-02-28T13:49:40;12.459999999999999;;;7.910000000000001;;
74788;SDS011;63313;48.258;12.518;2023-02-28T13:55:41;12.100000000000001;;;7.889999999999999;;
74788;SDS011;63313;48.258;12.518;2023-02-28T14:01:15;11.48;;;7.630000000000001;;
74788;SDS011;63313;48.258;12.518;2023-02-28T14:06:47;12.440000000000001;;;7.909999999999999;;
74788;SDS011;63313;48.258;12.518;2023-02-28T14:15:23;12.290000000000003;;;7.959999999999999;;
74788;SDS011;63313;48.258;12.518;2023-02-28T14:20:54;12.169999999999998;;;8.22;;
74788;SDS011;63313;48.258;12.518;2023-02-28T14:26:28;12.91;;;8.16;;
74788;SDS011;63313;48.258;12.518;2023-02-28T14:32:01;12.599999999999998;;;8.32;;
74788;SDS011;63313;48.258;12.518;2023-02-28T14:37:30;11.690000000000001;;;7.909999999999999;;
74788;SDS011;63313;48.258;12.518;2023-02-28T14:43:00;14.36;;;8.86;;
74788;SDS011;63313;48.258;12.518;2023-02-28T14:48:27;17.04;;;8.710000000000003;;
74788;SDS011;63313;48.258;12.518;2023-02-28T14:53:57;15.719999999999999;;;9.02;;
74788;SDS011;63313;48.258;12.518;2023-02-28T14:59:26;18.52;;;10.389999999999999;;
74788;SDS011;63313;48.258;12.518;2023-02-28T15:04:54;19.889999999999997;;;9.45;;
74788;SDS011;63313;48.258;12.518;2023-02-28T15:10:22;17.44;;;9.030000000000001;;
74788;SDS011;63313;48.258;12.518;2023-02-28T15:15:51;13.16;;;8.61;;
74788;SDS011;63313;48.258;12.518;2023-02-28T15:21:20;12.760000000000002;;;8.43;;
74788;SDS011;63313;48.258;12.518;2023-02-28T15:26:48;15.05;;;9.58;;
74788;SDS011;63313;48.258;12.518;2023-02-28T15:32:27;14.579999999999998;;;8.820000000000002;;
74788;SDS011;63313;48.258;12.518;2023-02-28T15:37:56;16.61;;;9.569999999999999;;
74788;SDS011;63313;48.258;12.518;2023-02-28T15:43:23;14.879999999999999;;;9.139999999999999;;
74788;SDS011;63313;48.258;12.518;2023-02-28T15:48:51;16.93;;;9.48;;
74788;SDS011;63313;48.258;12.518;2023-02-28T15:54:19;15.820000000000002;;;10.17;;
74788;SDS011;63313;48.258;12.518;2023-02-28T15:59:49;18.080000000000002;;;10.61;;
74788;SDS011;63313;48.258;12.518;2023-02-28T16:05:19;19.12;;;11.379999999999999;;
74788;SDS011;63313;48.258;12.518;2023-02-28T16:10:46;19.71;;;10.879999999999999;;
74788;SDS011;63313;48.258;12.518;2023-02-28T16:16:15;18.200000000000003;;;10.98;;
74788;SDS011;63313;48.258;12.518;2023-02-28T16:21:42;19.71;;;11.749999999999998;;
74788;SDS011;63313;48.258;12.518;2023-02-28T16:27:10;21.14;;;12.05;;
74788;SDS011;63313;48.258;12.518;2023-02-28T16:32:42;20.2;;;11.23;;
74788;SDS011;63313;48.258;12.518;2023-02-28T16:38:09;27.810000000000002;;;13.969999999999999;;
74788;SDS011;63313;48.258;12.518;2023-02-28T16:43:36;21.729999999999997;;;11.000000000000002;;
74788;SDS011;63313;48.258;12.518;2023-02-28T16:49:04;21.82;;;12.02;;
74788;SDS011;63313;48.258;12.518;2023-02-28T16:54:35;18.98;;;11.27;;
74788;SDS011;63313;48.258;12.518;2023-02-28T17:00:03;22.1;;;12.63;;
74788;SDS011;63313;48.258;12.518;2023-02-28T17:05:33;23.520000000000003;;;11.97;;
74788;SDS011;63313;48.258;12.518;2023-02-28T17:11:01;25.52;;;14.34;;
74788;SDS011;63313;48.258;12.518;2023-02-28T17:16:30;25.6;;;13.610000000000003;;
74788;SDS011;63313;48.258;12.518;2023-02-28T17:21:58;27.119999999999997;;;12.99;;
74788;SDS011;63313;48.258;12.518;2023-02-28T17:27:25;21.02;;;11.28;;
74788;SDS011;63313;48.258;12.518;2023-02-28T17:32:52;27.120000000000005;;;13.25;;
74788;SDS011;63313;48.258;12.518;2023-02-28T17:38:19;26.5;;;12.61;;
74788;SDS011;63313;48.258;12.518;2023-02-28T17:43:46;26.21;;;13.930000000000001;;
74788;SDS011;63313;48.258;12.518;2023-02-28T17:49:13;25.75;;;14.13;;
74788;SDS011;63313;48.258;12.518;2023-02-28T17:54:40;30.73;;;13.52;;
74788;SDS011;63313;48.258;12.518;2023-02-28T18:00:09;23.41;;;13.16;;
74788;SDS011;63313;48.258;12.518;2023-02-28T18:05:37;23.650000000000002;;;12.57;;
74788;SDS011;63313;48.258;12.518;2023-02-28T18:11:04;29.93;;;14.05;;
74788;SDS011;63313;48.258;12.518;2023-02-28T18:16:31;23.88;;;12.919999999999998;;
74788;SDS011;63313;48.258;12.518;2023-02-28T18:21:58;22.740000000000002;;;12.76;;
74788;SDS011;63313;48.258;12.518;2023-02-28T18:27:25;24.990000000000002;;;13.180000000000001;;
74788;SDS011;63313;48.258;12.518;2023-02-28T18:32:52;22.740000000000002;;;11.99;;
74788;SDS011;63313;48.258;12.518;2023-02-28T18:38:19;22.490000000000002;;;13.25;;
74788;SDS011;63313;48.258;12.518;2023-02-28T18:43:48;27.03;;;13.7;;
74788;SDS011;63313;48.258;12.518;2023-02-28T18:49:15;25.68;;;13.65;;
74788;SDS011;63313;48.258;12.518;2023-02-28T18:54:42;29.05;;;12.910000000000002;;
74788;SDS011;63313;48.258;12.518;2023-02-28T19:00:09;27.419999999999998;;;13.319999999999999;;
74788;SDS011;63313;48.258;12.518;2023-02-28T19:05:37;21.509999999999998;;;12.489999999999998;;
74788;SDS011;63313;48.258;12.518;2023-02-28T19:11:05;27.390000000000004;;;13.8;;
74788;SDS011;63313;48.258;12.518;2023-02-28T19:16:32;25.359999999999996;;;13.569999999999999;;
74788;SDS011;63313;48.258;12.518;2023-02-28T19:21:59;24.81;;;13.219999999999999;;
74788;SDS011;63313;48.258;12.518;2023-02-28T19:27:26;26.409999999999997;;;13.660000000000002;;
74788;SDS011;63313;48.258;12.518;2023-02-28T19:32:53;27.650000000000006;;;13.89;;
74788;SDS011;63313;48.258;12.518;2023-02-28T19:38:20;27.22;;;13.979999999999999;;
74788;SDS011;63313;48.258;12.518;2023-02-28T19:43:48;25.869999999999997;;;14.020000000000001;;
74788;SDS011;63313;48.258;12.518;2023-02-28T19:49:15;30.179999999999996;;;14.979999999999999;;
74788;SDS011;63313;48.258;12.518;2023-02-28T19:54:42;26.32;;;13.940000000000001;;
74788;SDS011;63313;48.258;12.518;2023-02-28T20:00:10;31.07;;;15.34;;
74788;SDS011;63313;48.258;12.518;2023-02-28T20:05:38;28.85;;;15.280000000000001;;
74788;SDS011;63313;48.258;12.518;2023-02-28T20:11:06;31.29;;;14.810000000000002;;
74788;SDS011;63313;48.258;12.518;2023-02-28T20:16:33;28.2;;;14.09;;
74788;SDS011;63313;48.258;12.518;2023-02-28T20:22:00;25.369999999999997;;;13.74;;
74788;SDS011;63313;48.258;12.518;2023-02-28T20:27:27;26.160000000000004;;;12.71;;
74788;SDS011;63313;48.258;12.518;2023-02-28T20:32:55;24.41;;;12.66;;
74788;SDS011;63313;48.258;12.518;2023-02-28T20:38:22;21.689999999999998;;;12.089999999999998;;
74788;SDS011;63313;48.258;12.518;2023-02-28T20:43:52;26.18;;;13.790000000000001;;
74788;SDS011;63313;48.258;12.518;2023-02-28T20:49:19;27.2;;;13.370000000000001;;
74788;SDS011;63313;48.258;12.518;2023-02-28T20:54:46;25.08;;;13.7;;
74788;SDS011;63313;48.258;12.518;2023-02-28T21:00:13;29.49;;;14.98;;
74788;SDS011;63313;48.258;12.518;2023-02-28T21:05:40;29.2;;;13.919999999999998;;
74788;SDS011;63313;48.258;12.518;2023-02-28T21:11:08;25.8;;;13.85;;
74788;SDS011;63313;48.258;12.518;2023-02-28T21:16:35;25.080000000000002;;;14.13;;
74788;SDS011;63313;48.258;12.518;2023-02-28T21:22:02;29.509999999999998;;;13.27;;
74788;SDS011;63313;48.258;12.518;2023-02-28T21:27:29;39.92;;;19.529999999999998;;
74788;SDS011;63313;48.258;12.518;2023-02-28T21:32:56;23.869999999999997;;;13.55;;
74788;SDS011;63313;48.258;12.518;2023-02-28T21:38:24;30.159999999999997;;;15.290000000000001;;
74788;SDS011;63313;48.258;12.518;2023-02-28T21:43:51;31.77;;;16.99;;
74788;SDS011;63313;48.258;12.518;2023-02-28T21:49:18;24.5;;;13.98;;
74788;SDS011;63313;48.258;12.518;2023-02-28T21:54:45;27.29;;;13.4;;
74788;SDS011;63313;48.258;12.518;2023-02-28T22:00:12;27.189999999999998;;;13.86;;
74788;SDS011;63313;48.258;12.518;2023-02-28T22:05:39;32.53;;;14.520000000000001;;
74788;SDS011;63313;48.258;12.518;2023-02-28T22:11:07;28.85;;;14.560000000000002;;
74788;SDS011;63313;48.258;12.518;2023-02-28T22:16:34;29.359999999999996;;;14.13;;
74788;SDS011;63313;48.258;12.518;2023-02-28T22:22:01;32.55;;;15.62;;
74788;SDS011;63313;48.258;12.518;2023-02-28T22:27:28;32.690000000000005;;;14.959999999999999;;
74788;SDS011;63313;48.258;12.518;2023-02-28T22:32:55;26.79;;;13.440000000000001;;
74788;SDS011;63313;48.258;12.518;2023-02-28T22:38:22;24.24;;;13.790000000000001;;
74788;SDS011;63313;48.258;12.518;2023-02-28T22:43:50;23.830000000000002;;;13.35;;
74788;SDS011;63313;48.258;12.518;2023-02-28T22:49:18;24.42;;;12.98;;
74788;SDS011;63313;48.258;12.518;2023-02-28T22:54:47;28.48;;;14.0;;
74788;SDS011;63313;48.258;12.518;2023-02-28T23:00:14;24.3;;;12.580000000000002;;
74788;SDS011;63313;48.258;12.518;2023-02-28T23:05:42;23.87;;;12.7;;
74788;SDS011;63313;48.258;12.518;2023-02-28T23:11:09;25.089999999999996;;;13.4;;
74788;SDS011;63313;48.258;12.518;2023-02-28T23:16:37;23.58;;;13.209999999999999;;
74788;SDS011;63313;48.258;12.518;2023-02-28T23:22:04;25.82;;;13.76;;
74788;SDS011;63313;48.258;12.518;2023-02-28T23:27:31;24.43;;;13.13;;
74788;SDS011;63313;48.258;12.518;2023-02-28T23:32:58;29.990000000000002;;;14.05;;
74788;SDS011;63313;48.258;12.518;2023-02-28T23:38:25;23.94;;;13.16;;
74788;SDS011;63313;48.258;12.518;2023-02-28T23:43:52;21.639999999999997;;;12.05;;
74788;SDS011;63313;48.258;12.518;2023-02-28T23:49:20;28.51;;;13.170000000000002;;
74788;SDS011;63313;48.258;12.518;2023-02-28T23:54:47;25.450000000000003;;;12.110000000000001;;
